createdAt,value
2019-02-28T00:01:33.452Z,30.43
2019-02-28T00:03:37.020Z,30.43
2019-02-28T00:05:40.544Z,30.27
2019-02-28T00:07:44.076Z,32.20
2019-02-28T00:09:47.536Z,33.73
2019-02-28T00:11:51.272Z,30.70
2019-02-28T00:13:55.811Z,35.43
2019-02-28T00:16:00.177Z,36.53
2019-02-28T00:18:05.145Z,78.40
2019-02-28T00:20:09.557Z,62.05
2019-02-28T00:22:14.674Z,36.77
2019-02-28T00:24:18.199Z,35.45
2019-02-28T00:26:21.920Z,34.65
2019-02-28T00:28:26.563Z,36.05
2019-02-28T00:30:30.229Z,40.10
2019-02-28T00:32:34.009Z,33.40
2019-02-28T00:34:39.191Z,32.67
2019-02-28T00:36:42.773Z,33.42
2019-02-28T00:38:46.304Z,31.90
2019-02-28T00:40:50.651Z,32.80
2019-02-28T00:42:54.508Z,32.03
2019-02-28T00:44:58.289Z,33.30
2019-02-28T00:47:01.876Z,32.05
2019-02-28T00:49:05.337Z,29.77
2019-02-28T00:51:09.183Z,32.45
2019-02-28T00:53:13.080Z,29.37
2019-02-28T00:55:16.540Z,30.17
2019-02-28T00:57:20.276Z,30.65
2019-02-28T00:59:24.105Z,31.77
2019-02-28T01:01:27.573Z,30.68
2019-02-28T01:03:31.035Z,30.72
2019-02-28T01:05:36.624Z,31.87
2019-02-28T01:07:40.209Z,35.25
2019-02-28T01:09:43.668Z,31.62
2019-02-28T01:11:47.404Z,32.30
2019-02-28T01:13:51.337Z,33.30
2019-02-28T01:15:54.806Z,33.95
2019-02-28T01:18:00.385Z,31.97
2019-02-28T01:20:04.189Z,31.77
2019-02-28T01:22:07.712Z,31.95
2019-02-28T01:24:11.269Z,33.15
2019-02-28T01:26:15.060Z,32.25
2019-02-28T01:28:18.844Z,35.35
2019-02-28T01:30:22.303Z,33.55
2019-02-28T01:32:25.776Z,32.25
2019-02-28T01:34:32.336Z,37.58
2019-02-28T01:36:34.824Z,35.08
2019-02-28T01:38:38.577Z,33.50
2019-02-28T01:40:42.084Z,33.20
2019-02-28T01:42:46.462Z,32.28
2019-02-28T01:44:49.933Z,34.50
2019-02-28T01:46:53.569Z,31.93
2019-02-28T01:48:57.030Z,33.30
2019-02-28T01:51:01.603Z,33.78
2019-02-28T01:53:05.705Z,33.70
2019-02-28T01:55:10.505Z,31.48
2019-02-28T01:57:14.465Z,30.68
2019-02-28T01:59:18.105Z,30.80
2019-02-28T02:01:21.665Z,31.95
2019-02-28T02:03:25.308Z,31.15
2019-02-28T02:05:28.936Z,30.75
2019-02-28T02:07:33.357Z,31.30
2019-02-28T02:09:37.537Z,29.95
2019-02-28T02:11:41.009Z,31.50
2019-02-28T02:13:44.680Z,31.95
2019-02-28T02:15:51.102Z,31.55
2019-02-28T02:17:53.673Z,30.68
2019-02-28T02:19:57.346Z,32.80
2019-02-28T02:22:00.884Z,30.85
2019-02-28T02:24:04.412Z,32.08
2019-02-28T02:26:08.406Z,30.75
2019-02-28T02:28:13.165Z,29.42
2019-02-28T02:30:22.226Z,31.77
2019-02-28T02:32:25.761Z,31.42
2019-02-28T02:34:29.851Z,33.15
2019-02-28T02:36:33.581Z,30.80
2019-02-28T02:38:41.412Z,35.58
2019-02-28T02:40:43.232Z,41.00
2019-02-28T02:42:48.836Z,47.93
2019-02-28T02:44:52.644Z,47.85
2019-02-28T02:46:56.969Z,48.02
2019-02-28T02:49:00.547Z,47.80
2019-02-28T02:51:10.672Z,47.60
2019-02-28T02:53:09.491Z,53.60
2019-02-28T02:55:14.646Z,51.23
2019-02-28T02:57:18.298Z,46.98
2019-02-28T02:59:21.832Z,48.70
2019-02-28T03:01:25.444Z,47.83
2019-02-28T03:03:29.323Z,38.08
2019-02-28T03:05:35.747Z,34.50
2019-02-28T03:07:38.170Z,33.73
2019-02-28T03:09:43.372Z,34.38
2019-02-28T03:11:46.887Z,31.40
2019-02-28T03:13:50.689Z,27.15
2019-02-28T03:15:59.132Z,25.55
2019-02-28T03:18:00.005Z,27.65
2019-02-28T03:20:07.374Z,25.30
2019-02-28T03:22:10.486Z,28.90
2019-02-28T03:24:15.276Z,30.97
2019-02-28T03:26:19.212Z,26.68
2019-02-28T03:28:23.036Z,26.55
2019-02-28T03:30:31.269Z,26.10
2019-02-28T03:32:39.696Z,34.50
2019-02-28T03:34:38.005Z,38.53
2019-02-28T03:36:41.643Z,35.10
2019-02-28T03:38:49.644Z,28.15
2019-02-28T03:40:50.713Z,25.75
2019-02-28T03:42:54.309Z,27.22
2019-02-28T03:44:58.236Z,26.65
2019-02-28T03:47:01.968Z,25.60
2019-02-28T03:49:11.002Z,24.32
2019-02-28T03:51:11.130Z,24.80
2019-02-28T03:53:19.424Z,25.65
2019-02-28T03:55:19.993Z,23.67
2019-02-28T03:57:27.926Z,22.85
2019-02-28T03:59:28.785Z,24.40
2019-02-28T04:01:32.688Z,24.18
2019-02-28T04:03:36.688Z,23.38
2019-02-28T04:05:40.300Z,23.27
2019-02-28T04:07:43.795Z,22.73
2019-02-28T04:09:47.690Z,23.35
2019-02-28T04:11:51.602Z,23.22
2019-02-28T04:13:56.055Z,23.70
2019-02-28T04:16:08.815Z,24.10
2019-02-28T04:18:07.523Z,23.30
2019-02-28T04:20:11.639Z,23.40
2019-02-28T04:22:15.101Z,22.80
2019-02-28T04:24:18.713Z,24.60
2019-02-28T04:26:22.510Z,23.85
2019-02-28T04:28:26.040Z,25.27
2019-02-28T04:30:31.153Z,24.95
2019-02-28T04:32:34.641Z,26.25
2019-02-28T04:34:38.173Z,23.02
2019-02-28T04:36:42.508Z,24.15
2019-02-28T04:38:45.953Z,23.20
2019-02-28T04:40:49.453Z,22.40
2019-02-28T04:42:52.986Z,23.70
2019-02-28T04:44:56.446Z,24.47
2019-02-28T04:46:59.899Z,23.00
2019-02-28T04:49:03.432Z,21.55
2019-02-28T04:51:06.968Z,22.02
2019-02-28T04:53:10.615Z,23.35
2019-02-28T04:55:15.005Z,23.20
2019-02-28T04:57:20.703Z,22.75
2019-02-28T04:59:24.061Z,22.85
2019-02-28T05:01:27.525Z,22.10
2019-02-28T05:03:30.986Z,21.93
2019-02-28T05:05:34.443Z,21.07
2019-02-28T05:07:37.917Z,20.27
2019-02-28T05:09:41.746Z,21.48
2019-02-28T05:11:45.282Z,20.50
2019-02-28T05:13:49.424Z,20.43
2019-02-28T05:15:53.025Z,18.73
2019-02-28T05:17:56.878Z,20.05
2019-02-28T05:20:00.728Z,20.92
2019-02-28T05:22:04.511Z,21.97
2019-02-28T05:24:08.657Z,21.40
2019-02-28T05:26:12.326Z,19.57
2019-02-28T05:28:15.793Z,21.00
2019-02-28T05:30:19.869Z,20.25
2019-02-28T05:32:23.444Z,19.65
2019-02-28T05:34:26.904Z,20.60
2019-02-28T05:36:34.661Z,19.35
2019-02-28T05:38:37.176Z,19.92
2019-02-28T05:40:41.496Z,19.35
2019-02-28T05:42:45.125Z,18.35
2019-02-28T05:44:48.784Z,18.32
2019-02-28T05:46:57.641Z,17.70
2019-02-28T05:48:58.800Z,17.60
2019-02-28T05:51:02.284Z,16.93
2019-02-28T05:53:06.211Z,18.12
2019-02-28T05:55:11.537Z,17.42
2019-02-28T05:57:15.009Z,18.12
2019-02-28T05:59:18.833Z,17.75
2019-02-28T06:01:22.665Z,17.80
2019-02-28T06:03:26.162Z,17.17
2019-02-28T06:05:29.739Z,18.75
2019-02-28T06:07:33.252Z,18.73
2019-02-28T06:09:36.975Z,18.00
2019-02-28T06:11:40.516Z,19.30
2019-02-28T06:13:43.993Z,18.25
2019-02-28T06:15:47.524Z,18.37
2019-02-28T06:17:54.602Z,17.98
2019-02-28T06:19:56.346Z,17.32
2019-02-28T06:22:00.171Z,19.07
2019-02-28T06:24:04.057Z,19.40
2019-02-28T06:26:07.680Z,17.42
2019-02-28T06:28:12.061Z,18.45
2019-02-28T06:30:17.818Z,17.60
2019-02-28T06:32:23.541Z,18.67
2019-02-28T06:34:26.640Z,18.20
2019-02-28T06:36:30.210Z,17.15
2019-02-28T06:38:34.076Z,18.75
2019-02-28T06:40:38.344Z,18.02
2019-02-28T06:42:43.501Z,17.32
2019-02-28T06:44:47.094Z,18.60
2019-02-28T06:46:50.904Z,17.55
2019-02-28T06:48:57.552Z,18.25
2019-02-28T06:50:59.932Z,18.48
2019-02-28T06:53:03.482Z,18.35
2019-02-28T06:55:09.191Z,17.45
2019-02-28T06:57:12.655Z,17.10
2019-02-28T06:59:16.232Z,17.25
2019-02-28T07:01:22.637Z,16.67
2019-02-28T07:03:24.888Z,18.02
2019-02-28T07:05:28.702Z,18.52
2019-02-28T07:07:32.454Z,16.70
2019-02-28T07:09:37.185Z,17.90
2019-02-28T07:11:41.137Z,15.98
2019-02-28T07:13:46.550Z,16.65
2019-02-28T07:15:50.376Z,16.07
2019-02-28T07:17:54.001Z,16.93
2019-02-28T07:20:01.653Z,17.05
2019-02-28T07:22:02.720Z,16.65
2019-02-28T07:24:06.336Z,16.70
2019-02-28T07:26:10.312Z,16.05
2019-02-28T07:28:14.133Z,15.45
2019-02-28T07:30:19.440Z,16.52
2019-02-28T07:32:23.166Z,17.23
2019-02-28T07:34:26.796Z,16.12
2019-02-28T07:36:30.548Z,15.93
2019-02-28T07:38:34.353Z,15.58
2019-02-28T07:40:38.259Z,15.38
2019-02-28T07:42:41.795Z,15.68
2019-02-28T07:44:45.258Z,16.62
2019-02-28T07:46:48.802Z,17.07
2019-02-28T07:48:52.341Z,17.75
2019-02-28T07:50:56.121Z,17.20
2019-02-28T07:53:00.857Z,16.82
2019-02-28T07:55:07.237Z,17.17
2019-02-28T07:57:16.931Z,16.73
2019-02-28T07:59:19.521Z,15.63
2019-02-28T08:01:24.520Z,18.23
2019-02-28T08:03:28.545Z,16.82
2019-02-28T08:05:32.084Z,17.17
2019-02-28T08:07:35.586Z,17.12
2019-02-28T08:09:40.585Z,16.70
2019-02-28T08:11:44.238Z,17.48
2019-02-28T08:13:47.703Z,15.28
2019-02-28T08:15:53.331Z,15.60
2019-02-28T08:17:56.432Z,15.90
2019-02-28T08:20:01.260Z,14.98
2019-02-28T08:22:05.306Z,16.30
2019-02-28T08:24:08.915Z,16.73
2019-02-28T08:26:15.306Z,16.10
2019-02-28T08:28:17.661Z,15.63
2019-02-28T08:30:26.075Z,16.02
2019-02-28T08:32:30.497Z,15.00
2019-02-28T08:34:34.430Z,16.20
2019-02-28T08:36:37.977Z,15.83
2019-02-28T08:38:43.706Z,15.98
2019-02-28T08:40:50.739Z,16.80
2019-02-28T08:44:59.644Z,16.20
2019-02-28T08:47:03.288Z,17.92
2019-02-28T08:49:07.671Z,17.30
2019-02-28T08:51:11.141Z,16.93
2019-02-28T08:53:15.376Z,18.35
2019-02-28T08:55:28.136Z,18.20
2019-02-28T08:57:26.518Z,20.08
2019-02-28T08:59:30.404Z,22.77
2019-02-28T09:01:34.060Z,18.70
2019-02-28T09:03:37.532Z,19.48
2019-02-28T09:05:41.171Z,19.85
2019-02-28T09:07:50.913Z,19.23
2019-02-28T09:09:50.790Z,20.40
2019-02-28T09:11:58.144Z,19.80
2019-02-28T09:14:00.204Z,20.25
2019-02-28T09:16:04.873Z,21.17
2019-02-28T09:18:09.328Z,20.52
2019-02-28T09:20:16.657Z,20.35
2019-02-28T09:22:20.640Z,20.10
2019-02-28T09:24:25.938Z,37.73
2019-02-28T09:26:31.222Z,44.42
2019-02-28T09:28:34.496Z,25.35
2019-02-28T09:30:44.204Z,21.65
2019-02-28T09:32:48.180Z,21.97
2019-02-28T09:34:52.629Z,39.95
2019-02-28T09:36:56.835Z,24.07
2019-02-28T09:39:00.874Z,20.48
2019-02-28T09:41:05.489Z,19.30
2019-02-28T09:43:09.152Z,18.87
2019-02-28T09:45:21.083Z,19.05
2019-02-28T09:47:26.556Z,19.23
2019-02-28T09:49:29.951Z,18.20
2019-02-28T09:51:34.359Z,16.32
2019-02-28T09:53:38.090Z,16.50
2019-02-28T09:55:41.527Z,16.17
2019-02-28T09:57:45.257Z,16.45
2019-02-28T09:59:50.189Z,16.12
2019-02-28T10:02:01.198Z,15.83
2019-02-28T10:03:59.672Z,14.63
2019-02-28T10:06:03.462Z,14.18
2019-02-28T10:08:07.233Z,14.53
2019-02-28T10:10:13.979Z,14.80
2019-02-28T10:12:17.661Z,13.60
2019-02-28T10:14:21.207Z,14.05
2019-02-28T10:16:25.081Z,16.00
2019-02-28T10:18:29.298Z,16.15
2019-02-28T10:20:40.980Z,21.35
2019-02-28T10:22:47.283Z,25.57
2019-02-28T10:24:50.836Z,18.20
2019-02-28T10:26:54.308Z,17.48
2019-02-28T10:28:58.272Z,17.75
2019-02-28T10:31:01.810Z,16.05
2019-02-28T10:33:05.613Z,23.70
2019-02-28T10:35:09.775Z,17.48
2019-02-28T10:37:13.938Z,22.95
2019-02-28T10:39:17.761Z,17.65
2019-02-28T10:41:24.257Z,26.27
2019-02-28T10:43:27.289Z,19.40
2019-02-28T10:45:31.468Z,20.43
2019-02-28T10:47:35.018Z,18.98
2019-02-28T10:49:38.556Z,24.40
2019-02-28T10:51:44.627Z,20.25
2019-02-28T10:53:47.265Z,31.07
2019-02-28T10:55:51.148Z,28.35
2019-02-28T10:57:54.684Z,22.17
2019-02-28T10:59:59.172Z,24.57
2019-02-28T11:02:03.236Z,20.70
2019-02-28T11:04:07.422Z,19.15
2019-02-28T11:06:12.181Z,18.02
2019-02-28T11:08:19.152Z,16.40
2019-02-28T11:10:22.889Z,18.10
2019-02-28T11:12:26.361Z,19.37
2019-02-28T11:14:30.188Z,23.12
2019-02-28T11:16:36.037Z,26.45
2019-02-28T11:18:41.925Z,33.73
2019-02-28T11:20:45.457Z,21.12
2019-02-28T11:22:49.601Z,19.35
2019-02-28T11:24:53.665Z,18.02
2019-02-28T11:26:57.413Z,19.23
2019-02-28T11:29:03.299Z,18.62
2019-02-28T11:31:07.336Z,21.05
2019-02-28T11:33:10.881Z,21.23
2019-02-28T11:35:14.727Z,22.77
2019-02-28T11:37:18.416Z,21.97
2019-02-28T11:39:22.060Z,22.40
2019-02-28T11:41:26.050Z,18.10
2019-02-28T11:43:29.585Z,18.85
2019-02-28T11:45:36.133Z,17.12
2019-02-28T11:47:42.625Z,18.07
2019-02-28T11:49:45.309Z,19.50
2019-02-28T11:51:49.429Z,16.40
2019-02-28T11:53:54.094Z,18.90
2019-02-28T11:55:59.727Z,18.98
2019-02-28T11:58:03.349Z,17.07
2019-02-28T12:00:16.148Z,21.25
2019-02-28T12:02:20.588Z,17.60
2019-02-28T12:04:24.957Z,18.02
2019-02-28T12:06:28.610Z,19.92
2019-02-28T12:08:32.146Z,17.90
2019-02-28T12:10:35.959Z,22.77
2019-02-28T12:12:41.561Z,25.35
2019-02-28T12:14:46.873Z,21.25
2019-02-28T12:16:53.563Z,23.67
2019-02-28T12:18:55.869Z,21.33
2019-02-28T12:21:02.038Z,17.67
2019-02-28T12:23:04.770Z,20.82
2019-02-28T12:25:14.337Z,21.25
2019-02-28T12:29:20.893Z,29.20
2019-02-28T12:31:25.990Z,26.02
2019-02-28T12:33:29.641Z,26.73
2019-02-28T12:35:40.011Z,36.40
2019-02-28T12:37:39.165Z,37.28
2019-02-28T12:39:42.804Z,38.80
2019-02-28T12:41:46.276Z,23.52
2019-02-28T12:43:50.142Z,25.10
2019-02-28T12:45:53.757Z,22.95
2019-02-28T12:47:57.906Z,19.77
2019-02-28T12:50:01.474Z,21.15
2019-02-28T12:52:05.111Z,20.20
2019-02-28T12:54:08.916Z,20.12
2019-02-28T12:56:14.252Z,21.95
2019-02-28T12:58:18.905Z,26.62
2019-02-28T13:00:31.261Z,24.37
2019-02-28T13:02:34.783Z,26.17
2019-02-28T13:04:38.647Z,23.75
2019-02-28T13:06:44.184Z,23.45
2019-02-28T13:08:48.056Z,20.17
2019-02-28T13:10:51.656Z,29.98
2019-02-28T13:13:05.558Z,36.48
2019-02-28T13:15:00.824Z,26.27
2019-02-28T13:17:04.601Z,21.07
2019-02-28T13:19:08.871Z,24.27
2019-02-28T13:21:12.655Z,19.80
2019-02-28T13:23:17.155Z,17.80
2019-02-28T13:25:23.471Z,18.95
2019-02-28T13:27:27.282Z,19.07
2019-02-28T13:29:32.394Z,19.60
2019-02-28T13:31:36.781Z,18.40
2019-02-28T13:33:40.377Z,21.80
2019-02-28T13:35:47.166Z,18.98
2019-02-28T13:37:49.940Z,19.70
2019-02-28T13:39:53.847Z,18.57
2019-02-28T13:42:03.232Z,22.02
2019-02-28T13:46:12.971Z,21.77
2019-02-28T13:48:25.362Z,24.60
2019-02-28T13:50:25.700Z,20.97
2019-02-28T13:52:30.647Z,12.77
2019-02-28T13:54:38.169Z,17.62
2019-02-28T13:56:41.362Z,17.60
2019-02-28T13:58:44.869Z,17.07
2019-02-28T14:00:48.460Z,15.78
2019-02-28T14:02:57.446Z,15.95
2019-02-28T14:05:02.747Z,15.27
2019-02-28T14:07:07.489Z,14.85
2019-02-28T14:09:12.834Z,16.67
2019-02-28T14:11:17.621Z,14.85
2019-02-28T14:13:21.167Z,17.07
2019-02-28T14:15:28.138Z,13.62
2019-02-28T14:17:32.525Z,14.70
2019-02-28T14:19:37.004Z,15.20
2019-02-28T14:21:41.568Z,14.55
2019-02-28T14:23:46.293Z,16.30
2019-02-28T14:25:49.920Z,15.40
2019-02-28T14:27:56.849Z,18.98
2019-02-28T14:29:59.341Z,18.05
2019-02-28T14:32:04.574Z,16.65
2019-02-28T14:34:08.525Z,17.42
2019-02-28T14:36:12.996Z,17.62
2019-02-28T14:38:16.859Z,18.00
2019-02-28T14:40:52.781Z,19.20
2019-02-28T14:42:56.893Z,27.73
2019-02-28T14:45:04.062Z,16.52
2019-02-28T14:47:06.413Z,17.02
2019-02-28T14:49:12.626Z,19.73
2019-02-28T14:51:15.432Z,19.82
2019-02-28T14:53:19.249Z,16.07
2019-02-28T14:55:23.703Z,16.30
2019-02-28T14:57:27.243Z,19.90
2019-02-28T14:59:31.266Z,16.60
2019-02-28T15:01:35.455Z,16.73
2019-02-28T15:03:39.251Z,14.68
2019-02-28T15:05:43.833Z,17.05
2019-02-28T15:07:47.633Z,25.17
2019-02-28T15:09:51.442Z,23.60
2019-02-28T15:11:55.444Z,20.08
2019-02-28T15:13:59.861Z,32.67
2019-02-28T15:16:04.154Z,17.40
2019-02-28T15:18:10.968Z,17.40
2019-02-28T15:20:15.182Z,20.10
2019-02-28T15:22:21.208Z,19.40
2019-02-28T15:24:24.280Z,20.05
2019-02-28T15:26:29.847Z,21.42
2019-02-28T15:28:33.749Z,23.65
2019-02-28T15:30:41.771Z,22.00
2019-02-28T15:32:45.683Z,22.32
2019-02-28T15:34:49.337Z,22.40
2019-02-28T15:36:55.597Z,22.75
2019-02-28T15:38:58.704Z,20.45
2019-02-28T15:41:02.685Z,24.10
2019-02-28T15:43:07.393Z,20.65
2019-02-28T15:45:13.032Z,21.95
2019-02-28T15:47:19.476Z,22.32
2019-02-28T15:49:22.229Z,20.35
2019-02-28T15:51:29.262Z,21.45
2019-02-28T15:53:33.577Z,20.55
2019-02-28T15:55:38.138Z,21.57
2019-02-28T15:57:41.913Z,21.75
2019-02-28T15:59:46.740Z,24.12
2019-02-28T16:01:50.996Z,21.97
2019-02-28T16:03:54.775Z,38.65
2019-02-28T16:05:58.332Z,24.20
2019-02-28T16:08:09.017Z,28.20
2019-02-28T16:10:10.578Z,25.80
2019-02-28T16:12:15.197Z,26.93
2019-02-28T16:14:19.522Z,41.95
2019-02-28T16:16:24.733Z,84.60
2019-02-28T16:18:28.661Z,49.60
2019-02-28T16:20:32.899Z,108.57
2019-02-28T16:22:36.611Z,88.03
2019-02-28T16:24:45.249Z,43.02
2019-02-28T16:26:53.465Z,59.63
2019-02-28T16:28:58.632Z,55.80
2019-02-28T16:31:06.349Z,96.87
2019-02-28T16:33:09.617Z,40.85
2019-02-28T16:35:14.581Z,56.48
2019-02-28T16:37:18.985Z,29.52
2019-02-28T16:39:22.787Z,28.60
2019-02-28T16:41:26.612Z,26.95
2019-02-28T16:43:30.785Z,25.68
2019-02-28T16:45:41.069Z,25.72
2019-02-28T16:47:43.936Z,24.10
2019-02-28T16:49:47.396Z,26.15
2019-02-28T16:51:50.937Z,25.45
2019-02-28T16:53:54.582Z,27.62
2019-02-28T16:55:58.398Z,27.50
2019-02-28T16:58:02.017Z,28.40
2019-02-28T17:00:14.812Z,30.85
2019-02-28T17:02:20.212Z,33.58
2019-02-28T17:04:23.766Z,38.75
2019-02-28T17:06:27.437Z,32.85
2019-02-28T17:08:32.549Z,29.42
2019-02-28T17:10:40.004Z,33.98
2019-02-28T17:12:46.067Z,31.35
2019-02-28T17:14:50.457Z,68.30
2019-02-28T17:17:04.779Z,329.23
2019-02-28T17:19:08.632Z,158.10
2019-02-28T17:21:17.940Z,65.40
2019-02-28T17:23:20.394Z,46.42
2019-02-28T17:25:24.306Z,39.98
2019-02-28T17:27:29.575Z,33.20
2019-02-28T17:29:34.679Z,36.05
2019-02-28T17:31:44.457Z,37.00
2019-02-28T17:33:49.584Z,33.73
2019-02-28T17:35:53.294Z,27.98
2019-02-28T17:38:00.181Z,27.35
2019-02-28T17:40:03.496Z,30.23
2019-02-28T17:42:09.044Z,34.23
2019-02-28T17:44:37.484Z,36.77
2019-02-28T17:46:40.697Z,36.93
2019-02-28T17:49:14.635Z,36.10
2019-02-28T17:51:24.685Z,37.95
2019-02-28T17:53:42.031Z,38.42
2019-02-28T17:56:06.086Z,43.65
2019-02-28T17:58:42.788Z,43.65
2019-02-28T18:01:01.094Z,42.00
2019-02-28T18:03:25.901Z,45.35
2019-02-28T18:06:03.208Z,44.67
2019-02-28T18:08:09.825Z,50.88
2019-02-28T18:10:21.084Z,44.60
2019-02-28T18:12:36.498Z,51.20
2019-02-28T18:14:52.789Z,43.55
2019-02-28T18:17:24.645Z,38.63
2019-02-28T18:19:34.280Z,41.18
2019-02-28T18:22:00.594Z,34.73
2019-02-28T18:24:19.212Z,34.25
2019-02-28T18:26:45.292Z,37.80
2019-02-28T18:29:01.856Z,42.75
2019-02-28T18:31:13.700Z,35.75
2019-02-28T18:33:19.336Z,32.67
2019-02-28T18:35:23.190Z,38.98
2019-02-28T18:37:27.085Z,44.93
2019-02-28T18:39:30.558Z,30.45
2019-02-28T18:41:34.111Z,31.62
2019-02-28T18:43:37.838Z,34.18
2019-02-28T18:45:42.452Z,35.75
2019-02-28T18:47:46.255Z,37.60
2019-02-28T18:49:51.525Z,35.45
2019-02-28T18:51:55.059Z,28.92
2019-02-28T18:53:58.993Z,31.85
2019-02-28T18:56:02.907Z,32.00
2019-02-28T18:58:06.433Z,31.97
2019-02-28T19:00:15.624Z,33.58
2019-02-28T19:02:19.605Z,32.55
2019-02-28T19:04:23.157Z,45.48
2019-02-28T19:06:26.957Z,36.08
2019-02-28T19:08:30.500Z,40.28
2019-02-28T19:10:34.294Z,39.40
2019-02-28T19:12:37.920Z,34.23
2019-02-28T19:14:41.518Z,34.23
2019-02-28T19:16:45.461Z,34.67
2019-02-28T19:18:49.144Z,33.78
2019-02-28T19:20:52.790Z,32.08
2019-02-28T19:22:59.621Z,37.95
2019-02-28T19:25:04.108Z,35.23
2019-02-28T19:27:07.989Z,32.55
2019-02-28T19:29:11.466Z,31.23
2019-02-28T19:31:15.773Z,29.77
2019-02-28T19:33:20.525Z,33.73
2019-02-28T19:35:24.396Z,33.55
2019-02-28T19:37:28.125Z,29.52
2019-02-28T19:39:32.023Z,32.80
2019-02-28T19:41:36.611Z,32.23
2019-02-28T19:43:40.600Z,33.02
2019-02-28T19:45:50.313Z,52.43
2019-02-28T19:47:54.247Z,37.90
2019-02-28T19:49:58.160Z,58.00
2019-02-28T19:52:01.725Z,89.13
2019-02-28T19:54:07.196Z,45.70
2019-02-28T19:56:11.047Z,62.95
2019-02-28T19:58:15.480Z,38.83
2019-02-28T20:00:20.762Z,38.25
2019-02-28T20:02:24.416Z,35.83
2019-02-28T20:04:28.274Z,37.45
2019-02-28T20:06:31.812Z,36.65
2019-02-28T20:08:35.656Z,40.52
2019-02-28T20:10:39.281Z,39.90
2019-02-28T20:12:42.949Z,39.65
2019-02-28T20:14:47.081Z,35.73
2019-02-28T20:16:50.556Z,37.80
2019-02-28T20:18:54.584Z,39.40
2019-02-28T20:20:58.131Z,39.45
2019-02-28T20:23:01.961Z,37.85
2019-02-28T20:25:10.187Z,38.02
2019-02-28T20:27:14.176Z,40.50
2019-02-28T20:29:19.165Z,40.48
2019-02-28T20:31:22.845Z,37.85
2019-02-28T20:33:26.598Z,42.80
2019-02-28T20:35:30.184Z,38.88
2019-02-28T20:37:33.997Z,39.40
2019-02-28T20:39:37.539Z,39.27
2019-02-28T20:41:41.400Z,40.28
2019-02-28T20:43:44.861Z,41.88
2019-02-28T20:45:48.697Z,43.90
2019-02-28T20:47:52.312Z,44.45
2019-02-28T20:49:56.124Z,43.15
2019-02-28T20:51:59.597Z,47.20
2019-02-28T20:54:04.541Z,47.05
2019-02-28T20:56:08.141Z,47.73
2019-02-28T20:58:11.602Z,46.53
2019-02-28T21:00:18.564Z,49.03
2019-02-28T21:02:23.010Z,47.95
2019-02-28T21:04:26.477Z,46.80
2019-02-28T21:06:30.024Z,50.15
2019-02-28T21:08:33.703Z,48.95
2019-02-28T21:10:37.609Z,50.95
2019-02-28T21:12:41.921Z,48.23
2019-02-28T21:14:46.310Z,60.63
2019-02-28T21:16:49.991Z,48.55
2019-02-28T21:18:53.935Z,50.23
2019-02-28T21:20:57.732Z,51.33
2019-02-28T21:23:01.440Z,49.77
2019-02-28T21:25:10.233Z,47.67
2019-02-28T21:27:13.813Z,48.68
2019-02-28T21:29:17.344Z,50.95
2019-02-28T21:31:21.164Z,48.87
2019-02-28T21:33:24.700Z,48.63
2019-02-28T21:35:28.656Z,52.17
2019-02-28T21:37:32.224Z,51.53
2019-02-28T21:39:35.684Z,50.03
2019-02-28T21:41:39.887Z,94.50
2019-02-28T21:43:43.666Z,69.67
2019-02-28T21:45:47.168Z,74.87
2019-02-28T21:47:51.071Z,102.45
2019-02-28T21:49:54.696Z,76.22
2019-02-28T21:52:00.256Z,68.05
2019-02-28T21:54:03.912Z,139.18
2019-02-28T21:56:07.552Z,99.30
2019-02-28T21:58:11.306Z,56.10
2019-02-28T22:00:17.480Z,72.75
2019-02-28T22:02:20.981Z,85.65
2019-02-28T22:04:24.440Z,83.30
2019-02-28T22:06:28.210Z,62.55
2019-02-28T22:08:31.838Z,91.12
2019-02-28T22:10:35.675Z,131.90
2019-02-28T22:12:39.192Z,63.40
2019-02-28T22:14:42.661Z,58.00
2019-02-28T22:16:46.209Z,59.48
2019-02-28T22:18:50.058Z,62.30
2019-02-28T22:20:53.590Z,91.67
2019-02-28T22:22:57.344Z,66.12
2019-02-28T22:25:00.888Z,64.58
2019-02-28T22:27:04.428Z,72.08
2019-02-28T22:29:08.341Z,59.42
2019-02-28T22:31:13.516Z,51.50
2019-02-28T22:33:37.071Z,57.55
2019-02-28T22:35:42.614Z,52.50
2019-02-28T22:37:46.148Z,54.45
2019-02-28T22:39:49.623Z,45.95
2019-02-28T22:41:53.151Z,53.20
2019-02-28T22:43:56.693Z,47.75
2019-02-28T22:46:01.200Z,47.80
2019-02-28T22:48:04.699Z,41.68
2019-02-28T22:50:09.621Z,46.20
2019-02-28T22:52:13.412Z,48.95
2019-02-28T22:54:16.878Z,45.00
2019-02-28T22:56:20.416Z,48.35
2019-02-28T22:58:24.209Z,46.33
2019-02-28T23:00:52.257Z,46.70
2019-02-28T23:02:55.811Z,50.00
2019-02-28T23:04:59.478Z,47.17
2019-02-28T23:07:03.860Z,51.85
2019-02-28T23:09:08.033Z,45.60
2019-02-28T23:11:11.637Z,45.75
2019-02-28T23:13:15.166Z,45.85
2019-02-28T23:15:18.629Z,48.08
2019-02-28T23:17:22.088Z,47.62
2019-02-28T23:19:25.656Z,47.55
2019-02-28T23:21:29.152Z,50.55
2019-02-28T23:23:32.699Z,45.33
2019-02-28T23:25:36.160Z,44.85
2019-02-28T23:27:39.941Z,47.23
2019-02-28T23:29:48.634Z,44.58
2019-02-28T23:32:20.201Z,44.18
2019-02-28T23:34:27.213Z,43.75
2019-02-28T23:36:30.784Z,43.90
2019-02-28T23:38:34.465Z,48.25
2019-02-28T23:40:38.800Z,45.85
2019-02-28T23:42:42.633Z,46.75
2019-02-28T23:44:46.104Z,43.42
2019-02-28T23:46:49.638Z,45.58
2019-02-28T23:48:53.193Z,47.30
2019-02-28T23:50:57.016Z,44.48
2019-02-28T23:53:00.481Z,43.45
2019-02-28T23:55:06.502Z,46.55
2019-02-28T23:57:10.037Z,45.08
2019-02-28T23:59:13.500Z,46.00
